sensor_id;sensor_type;location;lat;lon;timestamp;pressure;altitude;pressure_sealevel;temperature;humidity
42725;BME280;28369;44.046;23.014;2022-10-31T07:23:52;101688.28;;;19.49;54.46
42725;BME280;28369;44.046;23.014;2022-10-31T07:26:18;101618.16;;;19.06;54.64
42725;BME280;28369;44.046;23.014;2022-10-31T07:28:45;101698.50;;;19.71;54.48
42725;BME280;28369;44.046;23.014;2022-10-31T07:31:11;101713.25;;;19.99;54.84
42725;BME280;28369;44.046;23.014;2022-10-31T07:33:36;101667.59;;;19.51;54.34
42725;BME280;28369;44.046;23.014;2022-10-31T07:36:02;101627.44;;;19.45;54.40
42725;BME280;28369;44.046;23.014;2022-10-31T07:38:27;101636.63;;;19.75;53.93
42725;BME280;28369;44.046;23.014;2022-10-31T07:40:53;101695.91;;;20.36;53.13
42725;BME280;28369;44.046;23.014;2022-10-31T07:43:19;101612.31;;;20.11;52.12
42725;BME280;28369;44.046;23.014;2022-10-31T07:45:49;101648.66;;;20.53;51.81
42725;BME280;28369;44.046;23.014;2022-10-31T07:48:15;101680.50;;;20.80;51.49
42725;BME280;28369;44.046;23.014;2022-10-31T07:50:40;101664.63;;;20.86;51.40
42725;BME280;28369;44.046;23.014;2022-10-31T07:53:08;101703.16;;;21.00;50.81
42725;BME280;28369;44.046;23.014;2022-10-31T07:55:34;101693.66;;;20.98;50.22
42725;BME280;28369;44.046;23.014;2022-10-31T07:58:05;101689.22;;;21.21;49.46
42725;BME280;28369;44.046;23.014;2022-10-31T08:00:31;101706.84;;;21.39;49.23
42725;BME280;28369;44.046;23.014;2022-10-31T08:03:05;101529.75;;;20.18;49.49
42725;BME280;28369;44.046;23.014;2022-10-31T08:05:32;101680.88;;;21.16;49.50
42725;BME280;28369;44.046;23.014;2022-10-31T08:07:58;101705.53;;;21.35;49.76
42725;BME280;28369;44.046;23.014;2022-10-31T08:10:24;101593.44;;;20.94;48.63
42725;BME280;28369;44.046;23.014;2022-10-31T08:13:01;101577.59;;;20.92;48.55
42725;BME280;28369;44.046;23.014;2022-10-31T08:15:28;101629.00;;;21.34;48.16
42725;BME280;28369;44.046;23.014;2022-10-31T08:17:54;101651.47;;;21.48;47.98
42725;BME280;28369;44.046;23.014;2022-10-31T08:20:20;101555.38;;;21.15;47.27
42725;BME280;28369;44.046;23.014;2022-10-31T08:22:57;101694.63;;;22.22;47.43
42725;BME280;28369;44.046;23.014;2022-10-31T08:25:23;101494.19;;;21.20;46.97
42725;BME280;28369;44.046;23.014;2022-10-31T08:27:50;101695.00;;;22.57;46.59
42725;BME280;28369;44.046;23.014;2022-10-31T08:30:16;101660.72;;;22.38;46.22
42725;BME280;28369;44.046;23.014;2022-10-31T08:32:42;101666.63;;;22.48;46.38
42725;BME280;28369;44.046;23.014;2022-10-31T08:35:07;101690.56;;;22.94;45.33
42725;BME280;28369;44.046;23.014;2022-10-31T08:37:33;101625.25;;;22.51;45.10
42725;BME280;28369;44.046;23.014;2022-10-31T08:39:58;101689.03;;;23.15;44.93
42725;BME280;28369;44.046;23.014;2022-10-31T08:42:24;101620.63;;;22.89;45.11
42725;BME280;28369;44.046;23.014;2022-10-31T08:44:49;101657.38;;;23.10;45.80
42725;BME280;28369;44.046;23.014;2022-10-31T08:47:14;101659.16;;;23.18;46.20
42725;BME280;28369;44.046;23.014;2022-10-31T08:49:40;101703.13;;;23.39;46.05
42725;BME280;28369;44.046;23.014;2022-10-31T08:52:05;101695.38;;;23.44;46.40
42725;BME280;28369;44.046;23.014;2022-10-31T08:54:31;101499.34;;;22.36;45.43
42725;BME280;28369;44.046;23.014;2022-10-31T08:56:56;101510.78;;;22.59;45.39
42725;BME280;28369;44.046;23.014;2022-10-31T08:59:22;101596.38;;;23.12;44.89
42725;BME280;28369;44.046;23.014;2022-10-31T09:01:47;101623.28;;;23.19;43.88
42725;BME280;28369;44.046;23.014;2022-10-31T09:04:13;101683.38;;;23.83;43.67
42725;BME280;28369;44.046;23.014;2022-10-31T09:06:38;101678.41;;;24.02;43.45
42725;BME280;28369;44.046;23.014;2022-10-31T09:09:04;101487.91;;;23.15;43.22
42725;BME280;28369;44.046;23.014;2022-10-31T09:11:30;101709.84;;;24.79;43.38
42725;BME280;28369;44.046;23.014;2022-10-31T09:13:55;101498.44;;;23.67;42.18
42725;BME280;28369;44.046;23.014;2022-10-31T09:16:21;101601.53;;;24.22;42.74
42725;BME280;28369;44.046;23.014;2022-10-31T09:18:46;101491.00;;;23.40;42.57
42725;BME280;28369;44.046;23.014;2022-10-31T09:21:12;101703.78;;;25.06;42.21
42725;BME280;28369;44.046;23.014;2022-10-31T09:23:37;101692.44;;;25.17;41.93
42725;BME280;28369;44.046;23.014;2022-10-31T09:29:24;101678.56;;;24.72;41.78
42725;BME280;28369;44.046;23.014;2022-10-31T09:35:13;101659.78;;;24.78;41.81
42725;BME280;28369;44.046;23.014;2022-10-31T09:37:39;101667.28;;;24.96;41.54
42725;BME280;28369;44.046;23.014;2022-10-31T09:40:04;101675.16;;;24.91;41.50
42725;BME280;28369;44.046;23.014;2022-10-31T09:54:44;101427.22;;;23.99;39.99
42725;BME280;28369;44.046;23.014;2022-10-31T10:01:00;101679.38;;;25.76;40.61
42725;BME280;28369;44.046;23.014;2022-10-31T10:06:53;101659.72;;;25.75;39.80
42725;BME280;28369;44.046;23.014;2022-10-31T10:25:04;101673.25;;;26.15;39.81
42725;BME280;28369;44.046;23.014;2022-10-31T10:31:20;101426.53;;;24.94;39.06
42725;BME280;28369;44.046;23.014;2022-10-31T10:42:57;101640.59;;;26.84;38.03
42725;BME280;28369;44.046;23.014;2022-10-31T11:00:12;101515.28;;;26.80;36.73
42725;BME280;28369;44.046;23.014;2022-10-31T11:06:24;101627.63;;;27.45;36.42
42725;BME280;28369;44.046;23.014;2022-10-31T11:22:22;101590.00;;;27.75;35.24
42725;BME280;28369;44.046;23.014;2022-10-31T11:28:04;101586.16;;;27.89;35.09
42725;BME280;28369;44.046;23.014;2022-10-31T11:30:35;101559.66;;;27.80;34.97
42725;BME280;28369;44.046;23.014;2022-10-31T11:33:01;101532.91;;;27.71;34.63
42725;BME280;28369;44.046;23.014;2022-10-31T11:38:48;101577.00;;;28.16;34.70
42725;BME280;28369;44.046;23.014;2022-10-31T11:44:36;101454.91;;;27.82;33.94
42725;BME280;28369;44.046;23.014;2022-10-31T11:47:13;101467.16;;;28.03;33.44
42725;BME280;28369;44.046;23.014;2022-10-31T11:49:44;101500.88;;;28.19;33.80
42725;BME280;28369;44.046;23.014;2022-10-31T11:52:14;101588.69;;;28.84;33.10
42725;BME280;28369;44.046;23.014;2022-10-31T12:00:36;101569.94;;;28.52;33.27
42725;BME280;28369;44.046;23.014;2022-10-31T12:06:43;101547.38;;;28.58;32.91
42725;BME280;28369;44.046;23.014;2022-10-31T12:54:43;101534.31;;;28.55;33.28
42725;BME280;28369;44.046;23.014;2022-10-31T13:00:18;101492.97;;;28.36;33.11
42725;BME280;28369;44.046;23.014;2022-10-31T13:06:09;101511.78;;;28.79;32.63
42725;BME280;28369;44.046;23.014;2022-10-31T13:12:10;101540.66;;;28.98;31.75
42725;BME280;28369;44.046;23.014;2022-10-31T13:14:43;101527.59;;;28.94;32.26
42725;BME280;28369;44.046;23.014;2022-10-31T13:17:43;101491.03;;;28.73;32.24
42725;BME280;28369;44.046;23.014;2022-10-31T13:23:50;101488.47;;;28.78;31.82
42725;BME280;28369;44.046;23.014;2022-10-31T13:45:17;101528.75;;;28.87;32.00
42725;BME280;28369;44.046;23.014;2022-10-31T13:51:07;101451.47;;;28.12;32.78
42725;BME280;28369;44.046;23.014;2022-10-31T13:56:54;101515.84;;;28.52;32.38
42725;BME280;28369;44.046;23.014;2022-10-31T13:59:30;101519.00;;;28.49;32.08
42725;BME280;28369;44.046;23.014;2022-10-31T14:02:00;101502.78;;;28.49;31.92
42725;BME280;28369;44.046;23.014;2022-10-31T14:04:37;101529.03;;;28.67;31.93
42725;BME280;28369;44.046;23.014;2022-10-31T14:07:16;101485.84;;;28.41;32.27
42725;BME280;28369;44.046;23.014;2022-10-31T14:15:55;101398.13;;;28.07;31.91
42725;BME280;28369;44.046;23.014;2022-10-31T14:21:45;101508.34;;;28.54;32.05
42725;BME280;28369;44.046;23.014;2022-10-31T14:35:25;101526.38;;;28.04;33.71
42725;BME280;28369;44.046;23.014;2022-10-31T14:47:52;101530.94;;;27.85;33.83
42725;BME280;28369;44.046;23.014;2022-10-31T14:54:01;101460.56;;;26.72;35.70
42725;BME280;28369;44.046;23.014;2022-10-31T14:56:34;101517.56;;;26.76;36.39
42725;BME280;28369;44.046;23.014;2022-10-31T14:59:04;101429.69;;;26.16;36.14
42725;BME280;28369;44.046;23.014;2022-10-31T15:01:56;101525.06;;;26.67;37.31
42725;BME280;28369;44.046;23.014;2022-10-31T15:04:24;101380.13;;;25.59;37.64
42725;BME280;28369;44.046;23.014;2022-10-31T15:06:54;101507.16;;;26.34;36.57
42725;BME280;28369;44.046;23.014;2022-10-31T15:09:30;101533.25;;;26.41;36.39
42725;BME280;28369;44.046;23.014;2022-10-31T15:15:25;101521.13;;;26.04;37.65
42725;BME280;28369;44.046;23.014;2022-10-31T15:21:35;101413.06;;;25.14;37.94
42725;BME280;28369;44.046;23.014;2022-10-31T15:27:26;101432.09;;;25.06;38.66
42725;BME280;28369;44.046;23.014;2022-10-31T15:29:55;101528.59;;;25.56;37.97
42725;BME280;28369;44.046;23.014;2022-10-31T15:32:23;101541.63;;;25.32;39.49
42725;BME280;28369;44.046;23.014;2022-10-31T15:34:50;101544.28;;;25.25;38.76
42725;BME280;28369;44.046;23.014;2022-10-31T15:37:21;101442.03;;;24.85;38.53
42725;BME280;28369;44.046;23.014;2022-10-31T15:39:49;101400.13;;;24.49;38.44
42725;BME280;28369;44.046;23.014;2022-10-31T15:46:03;101514.25;;;25.22;37.59
42725;BME280;28369;44.046;23.014;2022-10-31T15:48:29;101533.53;;;25.32;37.61
42725;BME280;28369;44.046;23.014;2022-10-31T15:50:58;101457.53;;;24.90;37.50
42725;BME280;28369;44.046;23.014;2022-10-31T15:53:36;101504.94;;;25.04;37.47
42725;BME280;28369;44.046;23.014;2022-10-31T15:56:06;101446.09;;;24.67;37.63
42725;BME280;28369;44.046;23.014;2022-10-31T15:58:50;101544.47;;;25.17;37.81
42725;BME280;28369;44.046;23.014;2022-10-31T16:04:54;101553.69;;;24.88;38.81
42725;BME280;28369;44.046;23.014;2022-10-31T16:10:42;101525.13;;;24.31;39.87
42725;BME280;28369;44.046;23.014;2022-10-31T16:16:42;101546.25;;;23.85;42.18
42725;BME280;28369;44.046;23.014;2022-10-31T16:21:56;101554.16;;;23.64;43.29
42725;BME280;28369;44.046;23.014;2022-10-31T16:28:27;101545.41;;;22.98;43.48
42725;BME280;28369;44.046;23.014;2022-10-31T16:31:12;101565.47;;;23.17;42.88
42725;BME280;28369;44.046;23.014;2022-10-31T16:33:37;101563.66;;;23.02;41.91
42725;BME280;28369;44.046;23.014;2022-10-31T16:38:54;101577.81;;;23.54;40.94
42725;BME280;28369;44.046;23.014;2022-10-31T16:41:20;101483.25;;;23.09;40.45
42725;BME280;28369;44.046;23.014;2022-10-31T16:43:51;101609.38;;;23.74;40.43
42725;BME280;28369;44.046;23.014;2022-10-31T16:46:22;101591.22;;;23.76;40.46
42725;BME280;28369;44.046;23.014;2022-10-31T16:48:48;101577.38;;;23.72;40.71
42725;BME280;28369;44.046;23.014;2022-10-31T16:51:15;101503.59;;;23.18;40.85
42725;BME280;28369;44.046;23.014;2022-10-31T16:53:40;101563.91;;;23.44;41.64
42725;BME280;28369;44.046;23.014;2022-10-31T16:56:14;101581.28;;;23.26;41.60
42725;BME280;28369;44.046;23.014;2022-10-31T16:58:40;101493.06;;;22.43;41.78
42725;BME280;28369;44.046;23.014;2022-10-31T17:01:06;101424.81;;;21.95;41.91
42725;BME280;28369;44.046;23.014;2022-10-31T17:03:32;101607.19;;;23.04;41.54
42725;BME280;28369;44.046;23.014;2022-10-31T17:06:17;101605.44;;;22.97;41.23
42725;BME280;28369;44.046;23.014;2022-10-31T17:08:43;101604.53;;;22.89;41.22
42725;BME280;28369;44.046;23.014;2022-10-31T17:11:15;101487.75;;;22.20;40.83
42725;BME280;28369;44.046;23.014;2022-10-31T17:13:41;101547.00;;;22.55;40.84
42725;BME280;28369;44.046;23.014;2022-10-31T17:16:07;101472.16;;;22.09;40.56
42725;BME280;28369;44.046;23.014;2022-10-31T17:18:33;101623.16;;;22.98;40.83
42725;BME280;28369;44.046;23.014;2022-10-31T17:21:00;101560.28;;;22.49;40.83
42725;BME280;28369;44.046;23.014;2022-10-31T17:23:27;101589.47;;;22.58;40.83
42725;BME280;28369;44.046;23.014;2022-10-31T17:25:53;101610.91;;;22.58;41.29
42725;BME280;28369;44.046;23.014;2022-10-31T17:28:19;101609.25;;;22.57;41.33
42725;BME280;28369;44.046;23.014;2022-10-31T17:30:45;101535.03;;;21.98;41.34
42725;BME280;28369;44.046;23.014;2022-10-31T17:33:12;101624.13;;;22.60;41.26
42725;BME280;28369;44.046;23.014;2022-10-31T17:35:38;101558.75;;;22.16;41.04
42725;BME280;28369;44.046;23.014;2022-10-31T17:38:04;101538.53;;;21.99;41.39
42725;BME280;28369;44.046;23.014;2022-10-31T17:40:29;101539.91;;;21.80;41.69
42725;BME280;28369;44.046;23.014;2022-10-31T17:42:56;101594.69;;;22.07;41.70
42725;BME280;28369;44.046;23.014;2022-10-31T17:45:24;101446.22;;;21.03;41.72
42725;BME280;28369;44.046;23.014;2022-10-31T17:47:51;101640.50;;;22.27;41.97
42725;BME280;28369;44.046;23.014;2022-10-31T17:50:19;101442.88;;;21.01;41.68
42725;BME280;28369;44.046;23.014;2022-10-31T17:52:46;101652.78;;;22.21;42.43
42725;BME280;28369;44.046;23.014;2022-10-31T17:55:12;101643.19;;;22.12;42.55
42725;BME280;28369;44.046;23.014;2022-10-31T17:57:38;101575.34;;;21.58;42.87
42725;BME280;28369;44.046;23.014;2022-10-31T18:00:06;101659.19;;;21.74;43.89
42725;BME280;28369;44.046;23.014;2022-10-31T18:02:32;101494.34;;;20.64;44.51
42725;BME280;28369;44.046;23.014;2022-10-31T18:04:58;101530.72;;;20.73;44.72
42725;BME280;28369;44.046;23.014;2022-10-31T18:07:26;101622.06;;;21.16;45.14
42725;BME280;28369;44.046;23.014;2022-10-31T18:09:51;101584.47;;;20.86;44.62
42725;BME280;28369;44.046;23.014;2022-10-31T18:12:17;101597.44;;;20.98;44.64
42725;BME280;28369;44.046;23.014;2022-10-31T18:14:42;101554.78;;;20.65;45.11
42725;BME280;28369;44.046;23.014;2022-10-31T18:17:09;101650.09;;;21.20;45.21
42725;BME280;28369;44.046;23.014;2022-10-31T18:19:35;101645.53;;;20.98;45.27
42725;BME280;28369;44.046;23.014;2022-10-31T18:22:00;101555.38;;;20.35;45.86
42725;BME280;28369;44.046;23.014;2022-10-31T18:24:26;101629.22;;;20.76;46.12
42725;BME280;28369;44.046;23.014;2022-10-31T18:26:54;101552.91;;;20.17;46.32
42725;BME280;28369;44.046;23.014;2022-10-31T18:29:20;101656.66;;;20.70;46.59
42725;BME280;28369;44.046;23.014;2022-10-31T18:31:46;101549.13;;;20.03;46.73
42725;BME280;28369;44.046;23.014;2022-10-31T18:34:16;101526.59;;;19.73;46.74
42725;BME280;28369;44.046;23.014;2022-10-31T18:36:43;101657.31;;;20.55;46.53
42725;BME280;28369;44.046;23.014;2022-10-31T18:39:09;101658.66;;;20.43;47.34
42725;BME280;28369;44.046;23.014;2022-10-31T18:41:38;101599.66;;;20.05;47.58
42725;BME280;28369;44.046;23.014;2022-10-31T18:44:04;101653.00;;;20.22;48.03
42725;BME280;28369;44.046;23.014;2022-10-31T18:46:30;101643.53;;;20.11;48.08
42725;BME280;28369;44.046;23.014;2022-10-31T18:48:56;101609.16;;;19.83;48.48
42725;BME280;28369;44.046;23.014;2022-10-31T18:51:21;101635.69;;;19.93;48.43
42725;BME280;28369;44.046;23.014;2022-10-31T18:53:56;101625.97;;;19.75;48.99
42725;BME280;28369;44.046;23.014;2022-10-31T18:56:22;101532.56;;;19.09;49.12
42725;BME280;28369;44.046;23.014;2022-10-31T18:58:48;101576.53;;;19.22;49.85
42725;BME280;28369;44.046;23.014;2022-10-31T19:01:15;101635.59;;;19.51;50.05
42725;BME280;28369;44.046;23.014;2022-10-31T19:03:41;101625.22;;;19.40;50.11
42725;BME280;28369;44.046;23.014;2022-10-31T19:06:08;101582.81;;;19.04;50.75
42725;BME280;28369;44.046;23.014;2022-10-31T19:08:37;101602.16;;;19.06;50.49
42725;BME280;28369;44.046;23.014;2022-10-31T19:11:08;101523.66;;;18.50;50.73
42725;BME280;28369;44.046;23.014;2022-10-31T19:13:35;101611.13;;;18.97;50.29
42725;BME280;28369;44.046;23.014;2022-10-31T19:16:09;101612.09;;;18.96;50.60
42725;BME280;28369;44.046;23.014;2022-10-31T19:18:35;101586.03;;;18.81;50.54
42725;BME280;28369;44.046;23.014;2022-10-31T19:21:06;101608.00;;;18.75;50.84
42725;BME280;28369;44.046;23.014;2022-10-31T19:23:32;101653.75;;;18.97;50.79
42725;BME280;28369;44.046;23.014;2022-10-31T19:25:58;101608.75;;;18.59;51.04
42725;BME280;28369;44.046;23.014;2022-10-31T19:28:24;101647.53;;;18.88;51.25
42725;BME280;28369;44.046;23.014;2022-10-31T19:30:54;101607.41;;;18.55;51.00
42725;BME280;28369;44.046;23.014;2022-10-31T19:33:20;101607.72;;;18.52;50.90
42725;BME280;28369;44.046;23.014;2022-10-31T19:35:46;101659.19;;;18.87;50.68
42725;BME280;28369;44.046;23.014;2022-10-31T19:38:12;101664.31;;;18.80;50.58
42725;BME280;28369;44.046;23.014;2022-10-31T19:40:37;101658.81;;;18.82;50.30
42725;BME280;28369;44.046;23.014;2022-10-31T19:43:03;101663.28;;;18.81;50.30
42725;BME280;28369;44.046;23.014;2022-10-31T19:45:28;101641.16;;;18.55;50.34
42725;BME280;28369;44.046;23.014;2022-10-31T19:47:54;101663.22;;;18.65;50.52
42725;BME280;28369;44.046;23.014;2022-10-31T19:50:19;101658.88;;;18.64;50.77
42725;BME280;28369;44.046;23.014;2022-10-31T19:52:45;101678.22;;;18.74;50.69
42725;BME280;28369;44.046;23.014;2022-10-31T19:55:11;101612.88;;;18.27;50.66
42725;BME280;28369;44.046;23.014;2022-10-31T19:57:37;101681.53;;;18.68;50.76
42725;BME280;28369;44.046;23.014;2022-10-31T20:00:03;101646.06;;;18.41;50.85
42725;BME280;28369;44.046;23.014;2022-10-31T20:02:29;101607.84;;;18.24;50.78
42725;BME280;28369;44.046;23.014;2022-10-31T20:04:54;101679.53;;;18.70;50.79
42725;BME280;28369;44.046;23.014;2022-10-31T20:07:20;101596.97;;;18.09;50.88
42725;BME280;28369;44.046;23.014;2022-10-31T20:09:46;101693.97;;;18.59;51.00
42725;BME280;28369;44.046;23.014;2022-10-31T20:12:11;101655.53;;;18.36;50.77
42725;BME280;28369;44.046;23.014;2022-10-31T20:14:37;101690.44;;;18.59;50.78
42725;BME280;28369;44.046;23.014;2022-10-31T20:17:02;101595.56;;;17.87;50.92
42725;BME280;28369;44.046;23.014;2022-10-31T20:19:28;101684.72;;;18.45;51.13
42725;BME280;28369;44.046;23.014;2022-10-31T20:21:54;101674.72;;;18.47;50.80
42725;BME280;28369;44.046;23.014;2022-10-31T20:24:19;101605.25;;;18.06;50.62
42725;BME280;28369;44.046;23.014;2022-10-31T20:26:45;101633.41;;;18.35;50.27
42725;BME280;28369;44.046;23.014;2022-10-31T20:29:14;101643.41;;;18.41;50.30
42725;BME280;28369;44.046;23.014;2022-10-31T20:31:45;101618.31;;;18.18;50.28
42725;BME280;28369;44.046;23.014;2022-10-31T20:34:11;101649.06;;;18.38;50.07
42725;BME280;28369;44.046;23.014;2022-10-31T20:36:37;101585.69;;;17.98;50.21
42725;BME280;28369;44.046;23.014;2022-10-31T20:39:02;101686.66;;;18.61;50.37
42725;BME280;28369;44.046;23.014;2022-10-31T20:41:28;101603.34;;;17.99;50.56
42725;BME280;28369;44.046;23.014;2022-10-31T20:43:54;101562.69;;;17.70;50.46
42725;BME280;28369;44.046;23.014;2022-10-31T20:46:22;101661.78;;;18.26;50.60
42725;BME280;28369;44.046;23.014;2022-10-31T20:48:48;101600.38;;;17.84;50.70
42725;BME280;28369;44.046;23.014;2022-10-31T20:51:20;101622.75;;;17.91;51.06
42725;BME280;28369;44.046;23.014;2022-10-31T20:53:47;101595.66;;;17.77;51.32
42725;BME280;28369;44.046;23.014;2022-10-31T20:56:15;101609.34;;;17.83;51.64
42725;BME280;28369;44.046;23.014;2022-10-31T20:58:42;101694.16;;;18.22;51.67
42725;BME280;28369;44.046;23.014;2022-10-31T21:01:32;101714.84;;;18.28;52.16
42725;BME280;28369;44.046;23.014;2022-10-31T21:04:00;101697.06;;;18.10;52.26
42725;BME280;28369;44.046;23.014;2022-10-31T21:06:27;101548.25;;;17.19;51.94
42725;BME280;28369;44.046;23.014;2022-10-31T21:08:52;101697.38;;;18.07;52.27
42725;BME280;28369;44.046;23.014;2022-10-31T21:11:21;101694.34;;;18.02;52.40
42725;BME280;28369;44.046;23.014;2022-10-31T21:13:47;101647.63;;;17.72;52.94
42725;BME280;28369;44.046;23.014;2022-10-31T21:16:16;101624.97;;;17.50;52.96
42725;BME280;28369;44.046;23.014;2022-10-31T21:18:43;101628.63;;;17.49;53.48
42725;BME280;28369;44.046;23.014;2022-10-31T21:21:14;101626.63;;;17.33;53.82
42725;BME280;28369;44.046;23.014;2022-10-31T21:23:41;101660.16;;;17.43;54.06
42725;BME280;28369;44.046;23.014;2022-10-31T21:26:15;101695.19;;;17.57;54.19
42725;BME280;28369;44.046;23.014;2022-10-31T21:28:41;101607.09;;;16.96;54.52
42725;BME280;28369;44.046;23.014;2022-10-31T21:31:09;101615.72;;;17.08;54.74
42725;BME280;28369;44.046;23.014;2022-10-31T21:33:36;101679.56;;;17.44;54.92
42725;BME280;28369;44.046;23.014;2022-10-31T21:36:03;101447.97;;;15.92;54.66
42725;BME280;28369;44.046;23.014;2022-10-31T21:38:29;101586.75;;;16.77;54.78
42725;BME280;28369;44.046;23.014;2022-10-31T21:41:02;101313.97;;;15.02;54.57
42725;BME280;28369;44.046;23.014;2022-10-31T21:43:28;101566.19;;;16.51;54.64
42725;BME280;28369;44.046;23.014;2022-10-31T21:45:53;101652.50;;;17.03;54.89
42725;BME280;28369;44.046;23.014;2022-10-31T21:48:19;101686.25;;;17.20;54.89
42725;BME280;28369;44.046;23.014;2022-10-31T21:50:44;101674.69;;;17.12;55.36
42725;BME280;28369;44.046;23.014;2022-10-31T21:53:10;101507.97;;;16.02;55.37
42725;BME280;28369;44.046;23.014;2022-10-31T21:55:54;101685.19;;;17.13;55.47
42725;BME280;28369;44.046;23.014;2022-10-31T21:58:20;101684.66;;;17.09;55.98
42725;BME280;28369;44.046;23.014;2022-10-31T22:00:45;101688.28;;;17.08;55.94
42725;BME280;28369;44.046;23.014;2022-10-31T22:03:11;101685.63;;;17.08;56.07
42725;BME280;28369;44.046;23.014;2022-10-31T22:05:36;101690.13;;;16.98;56.17
42725;BME280;28369;44.046;23.014;2022-10-31T22:08:02;101648.56;;;16.69;56.41
42725;BME280;28369;44.046;23.014;2022-10-31T22:10:27;101652.91;;;16.61;56.77
42725;BME280;28369;44.046;23.014;2022-10-31T22:12:53;101618.03;;;16.36;56.79
42725;BME280;28369;44.046;23.014;2022-10-31T22:15:18;101663.78;;;16.57;56.85
42725;BME280;28369;44.046;23.014;2022-10-31T22:17:47;101711.13;;;16.91;57.64
42725;BME280;28369;44.046;23.014;2022-10-31T22:20:13;101640.94;;;16.37;57.28
42725;BME280;28369;44.046;23.014;2022-10-31T22:22:39;101588.22;;;16.04;57.62
42725;BME280;28369;44.046;23.014;2022-10-31T22:25:04;101682.53;;;16.56;58.06
42725;BME280;28369;44.046;23.014;2022-10-31T22:27:30;101722.19;;;16.67;60.79
42725;BME280;28369;44.046;23.014;2022-10-31T22:29:55;101578.03;;;15.90;60.50
42725;BME280;28369;44.046;23.014;2022-10-31T22:32:22;101621.00;;;16.13;60.47
42725;BME280;28369;44.046;23.014;2022-10-31T22:34:48;101650.31;;;16.31;60.87
42725;BME280;28369;44.046;23.014;2022-10-31T22:37:13;101634.41;;;16.21;62.00
42725;BME280;28369;44.046;23.014;2022-10-31T22:39:39;101649.78;;;16.28;65.34
42725;BME280;28369;44.046;23.014;2022-10-31T22:42:04;101671.34;;;16.62;67.96
42725;BME280;28369;44.046;23.014;2022-10-31T22:44:30;101675.94;;;16.70;67.68
42725;BME280;28369;44.046;23.014;2022-10-31T22:46:55;101679.19;;;16.54;67.73
42725;BME280;28369;44.046;23.014;2022-10-31T22:49:21;101512.06;;;15.48;66.92
42725;BME280;28369;44.046;23.014;2022-10-31T22:51:49;101733.09;;;16.54;67.55
42725;BME280;28369;44.046;23.014;2022-10-31T22:54:16;101603.25;;;15.75;68.38
42725;BME280;28369;44.046;23.014;2022-10-31T22:56:42;101711.47;;;16.49;67.17
42725;BME280;28369;44.046;23.014;2022-10-31T22:59:10;101714.28;;;16.28;65.04
42725;BME280;28369;44.046;23.014;2022-10-31T23:01:36;101688.84;;;16.16;65.87
42725;BME280;28369;44.046;23.014;2022-10-31T23:04:02;101676.03;;;16.11;68.22
42725;BME280;28369;44.046;23.014;2022-10-31T23:06:30;101704.78;;;16.16;70.77
42725;BME280;28369;44.046;23.014;2022-10-31T23:08:56;101713.72;;;16.05;73.55
42725;BME280;28369;44.046;23.014;2022-10-31T23:11:30;101646.63;;;15.54;73.83
42725;BME280;28369;44.046;23.014;2022-10-31T23:13:57;101701.41;;;15.84;73.78
42725;BME280;28369;44.046;23.014;2022-10-31T23:17:02;101724.31;;;15.95;73.46
42725;BME280;28369;44.046;23.014;2022-10-31T23:19:29;101556.84;;;14.91;72.92
42725;BME280;28369;44.046;23.014;2022-10-31T23:21:59;101747.19;;;16.06;71.86
42725;BME280;28369;44.046;23.014;2022-10-31T23:24:34;101735.88;;;15.94;71.92
42725;BME280;28369;44.046;23.014;2022-10-31T23:32:08;101648.72;;;15.41;75.95
42725;BME280;28369;44.046;23.014;2022-10-31T23:34:35;101697.16;;;15.62;75.37
42725;BME280;28369;44.046;23.014;2022-10-31T23:37:00;101719.56;;;15.79;74.60
42725;BME280;28369;44.046;23.014;2022-10-31T23:39:26;101727.22;;;15.82;74.42
42725;BME280;28369;44.046;23.014;2022-10-31T23:41:52;101713.00;;;15.83;73.40
42725;BME280;28369;44.046;23.014;2022-10-31T23:44:17;101667.88;;;15.64;72.30
42725;BME280;28369;44.046;23.014;2022-10-31T23:46:43;101723.19;;;15.88;71.53
42725;BME280;28369;44.046;23.014;2022-10-31T23:49:08;101718.44;;;15.82;70.87
42725;BME280;28369;44.046;23.014;2022-10-31T23:51:34;101620.31;;;15.12;72.01
42725;BME280;28369;44.046;23.014;2022-10-31T23:53:59;101669.50;;;15.45;72.73
42725;BME280;28369;44.046;23.014;2022-10-31T23:56:25;101625.59;;;15.12;72.98
42725;BME280;28369;44.046;23.014;2022-10-31T23:58:50;101621.25;;;15.01;72.95
